Map

Track Data

SID SEASON NUMBER BASIN SUBBASIN NAME ISO_TIME NATURE LAT LON WMO_WIND WMO_PRES WMO_AGENCY TRACK_TYPE DIST2LAND LANDFALL IFLAG USA_AGENCY USA_ATCF_ID USA_LAT USA_LON USA_RECORD USA_STATUS USA_WIND USA_PRES USA_SSHS USA_R34_NE USA_R34_SE USA_R34_SW USA_R34_NW USA_R50_NE USA_R50_SE USA_R50_SW USA_R50_NW USA_R64_NE USA_R64_SE USA_R64_SW USA_R64_NW USA_POCI USA_ROCI USA_RMW USA_EYE TOKYO_LAT TOKYO_LON TOKYO_GRADE TOKYO_WIND TOKYO_PRES TOKYO_R50_DIR TOKYO_R50_LONG TOKYO_R50_SHORT TOKYO_R30_DIR TOKYO_R30_LONG TOKYO_R30_SHORT TOKYO_LAND CMA_LAT CMA_LON CMA_CAT CMA_WIND CMA_PRES HKO_LAT HKO_LON HKO_CAT HKO_WIND HKO_PRES NEWDELHI_LAT NEWDELHI_LON NEWDELHI_GRADE NEWDELHI_WIND NEWDELHI_PRES NEWDELHI_CI NEWDELHI_DP NEWDELHI_POCI REUNION_LAT REUNION_LON REUNION_TYPE REUNION_WIND REUNION_PRES REUNION_TNUM REUNION_CI REUNION_RMW REUNION_R34_NE REUNION_R34_SE REUNION_R34_SW REUNION_R34_NW REUNION_R50_NE REUNION_R50_SE REUNION_R50_SW REUNION_R50_NW REUNION_R64_NE REUNION_R64_SE REUNION_R64_SW REUNION_R64_NW BOM_LAT BOM_LON BOM_TYPE BOM_WIND BOM_PRES BOM_TNUM BOM_CI BOM_RMW BOM_R34_NE BOM_R34_SE BOM_R34_SW BOM_R34_NW BOM_R50_NE BOM_R50_SE BOM_R50_SW BOM_R50_NW BOM_R64_NE BOM_R64_SE BOM_R64_SW BOM_R64_NW BOM_ROCI BOM_POCI BOM_EYE BOM_POS_METHOD BOM_PRES_METHOD NADI_LAT NADI_LON NADI_CAT NADI_WIND NADI_PRES WELLINGTON_LAT WELLINGTON_LON WELLINGTON_WIND WELLINGTON_PRES DS824_LAT DS824_LON DS824_STAGE DS824_WIND DS824_PRES TD9636_LAT TD9636_LON TD9636_STAGE TD9636_WIND TD9636_PRES TD9635_LAT TD9635_LON TD9635_WIND TD9635_PRES TD9635_ROCI NEUMANN_LAT NEUMANN_LON NEUMANN_CLASS NEUMANN_WIND NEUMANN_PRES MLC_LAT MLC_LON MLC_CLASS MLC_WIND MLC_PRES USA_GUST BOM_GUST BOM_GUST_PER REUNION_GUST REUNION_GUST_PER USA_SEAHGT USA_SEARAD_NE USA_SEARAD_SE USA_SEARAD_SW USA_SEARAD_NW STORM_SPEED STORM_DIR
1967001N06083 1967 1 NI BB NOT_NAMED 1967-01-01 00:00:00 TS 6.20000 82.8000 main 126 123 O________O____ jtwc_io IO011967 6.20000 82.8000 -1 6.20000 82.8000 TC 25 5 21
1967001N06083 1967 1 NI BB NOT_NAMED 1967-01-01 03:00:00 TS 6.42200 82.8900 main 129 119 P________PO___ IO011967 6.42750 82.8875 -1 6.42750 82.8875 TC 25 6.40000 82.9000 1 5 22
1967001N06083 1967 1 NI BB NOT_NAMED 1967-01-01 06:00:00 TS 6.70548 83.0047 main 126 123 O________OP___ jtwc_io IO011967 6.70000 83.0000 -1 6.70000 83.0000 TC 25 6.72191 83.0187 1 7 23
1967001N06083 1967 1 NI BB NOT_NAMED 1967-01-01 09:00:00 TS 7.04320 83.1472 main 132 132 P________PP___ IO011967 7.04251 83.1500 -1 7.04251 83.1500 TC 25 7.04504 83.1400 1 7 23
1967001N06083 1967 1 NI BB NOT_NAMED 1967-01-01 12:00:00 TS 7.39022 83.2887 main 160 160 O________OP___ jtwc_io IO011967 7.40000 83.3000 -1 7.40000 83.3000 TC 25 7.37065 83.2662 1 7 21
1967001N06083 1967 1 NI BB NOT_NAMED 1967-01-01 15:00:00 TS 7.70499 83.4000 main 176 176 P________PO___ IO011967 7.70748 83.4001 -1 7.70748 83.4001 TC 25 7.70000 83.4000 1 7 20
1967001N06083 1967 1 NI BB NOT_NAMED 1967-01-01 18:00:00 TS 8.01051 83.5143 main 192 192 O________OP___ jtwc_io IO011967 8.00000 83.5000 -1 8.00000 83.5000 TC 25 8.03154 83.5428 1 7 23
1967001N06083 1967 1 NI BB NOT_NAMED 1967-01-01 21:00:00 TS 8.32249 83.6592 main 223 223 P________PP___ IO011967 8.30750 83.6425 -1 8.30750 83.6425 TC 25 8.35248 83.6925 1 7 26
1967001N06083 1967 1 NI BB NOT_NAMED 1967-01-02 00:00:00 TS 8.61572 83.8153 main 247 247 O________OP___ jtwc_io IO011967 8.60000 83.8000 -1 8.60000 83.8000 TC 25 8.64717 83.8459 1 6 29
1967001N06083 1967 1 NI BB NOT_NAMED 1967-01-02 03:00:00 TS 8.88166 83.9667 main 282 282 P________PO___ IO011967 8.87249 83.9500 -1 8.87249 83.9500 TC 25 8.90000 84.0000 1 6 32
1967001N06083 1967 1 NI BB NOT_NAMED 1967-01-02 06:00:00 TS 9.10041 84.1180 main 301 301 O________OP___ jtwc_io IO011967 9.10000 84.1000 -1 9.10000 84.1000 TC 25 9.10123 84.1541 1 5 38
1967001N06083 1967 1 NI BB NOT_NAMED 1967-01-02 09:00:00 TS 9.26832 84.2692 main 330 330 P________PP___ IO011967 9.27249 84.2500 -1 9.27249 84.2500 TC 25 9.25998 84.3076 1 4 45
1967001N06083 1967 1 NI BB NOT_NAMED 1967-01-02 12:00:00 TS 9.39624 84.4191 main 345 345 O________OP___ jtwc_io IO011967 9.40000 84.4000 -1 9.40000 84.4000 TC 25 9.38873 84.4572 1 4 51
1967001N06083 1967 1 NI BB NOT_NAMED 1967-01-02 15:00:00 TS 9.50500 84.5667 main 370 370 P________PO___ IO011967 9.50749 84.5500 -1 9.50749 84.5500 TC 25 9.50000 84.6000 1 3 53
1967001N06083 1967 1 NI BB NOT_NAMED 1967-01-02 18:00:00 TS 9.59931 84.6973 main 385 385 O________OP___ jtwc_io IO011967 9.60000 84.7000 -1 9.60000 84.7000 TC 25 9.59794 84.6918 1 3 53
1967001N06083 1967 1 NI BB NOT_NAMED 1967-01-02 21:00:00 TS 9.69488 84.8226 main 400 400 P________PP___ IO011967 9.69998 84.8425 -1 9.69998 84.8425 TC 25 9.68469 84.7829 1 3 54
1967001N06083 1967 1 NI BB NOT_NAMED 1967-01-03 00:00:00 TS 9.79304 84.9692 main 424 424 O________OP___ jtwc_io IO011967 9.80000 85.0000 -1 9.80000 85.0000 TC 25 9.77911 84.9075 1 4 58
1967001N06083 1967 1 NI BB NOT_NAMED 1967-01-03 03:00:00 TS 9.88494 85.1367 main 439 439 P________PO___ IO011967 9.87740 85.1551 -1 9.87740 85.1551 TC 25 9.90000 85.1000 1 5 63
1967001N06083 1967 1 NI BB NOT_NAMED 1967-01-03 06:00:00 TS 10.0171 85.4145 main 473 473 O________OP___ jtwc_io IO011967 10.0000 85.4000 -1 10.0000 85.4000 TC 25 10.0514 85.4435 1 8 64
1967001N06083 1967 1 NI BB NOT_NAMED 1967-01-03 09:00:00 TS 10.2295 85.8448 main 523 523 P________PP___ IO011967 10.2277 85.8424 -1 10.2277 85.8424 TC 25 10.2331 85.8497 1 10 61
1967001N06083 1967 1 NI BB NOT_NAMED 1967-01-03 12:00:00 TS 10.4828 86.2853 main 587 587 O________OP___ jtwc_io IO011967 10.5000 86.3000 -1 10.5000 86.3000 TC 25 10.4483 86.2560 1 9 56
1967001N06083 1967 1 NI BB NOT_NAMED 1967-01-03 15:00:00 TS 10.7233 86.5967 main 626 626 P________PO___ IO011967 10.7349 86.5951 -1 10.7349 86.5951 TC 25 10.7000 86.6000 1 7 45
1967001N06083 1967 1 NI BB NOT_NAMED 1967-01-03 18:00:00 TS 11.0030 86.8084 main 660 660 O________OP___ jtwc_io IO011967 11.0000 86.8000 -1 11.0000 86.8000 TC 25 11.0091 86.8253 1 7 31
1967001N06083 1967 1 NI BB NOT_NAMED 1967-01-03 21:00:00 TS 11.3499 86.9841 main 694 694 P________PP___ IO011967 11.3500 86.9875 -1 11.3500 86.9875 TC 25 11.3497 86.9775 1 8 21
1967001N06083 1967 1 NI BB NOT_NAMED 1967-01-04 00:00:00 TS 11.6968 87.0886 main 725 725 O________OP___ jtwc_io IO011967 11.7000 87.1000 -1 11.7000 87.1000 TC 25 11.6905 87.0659 1 7 12
1967001N06083 1967 1 NI BB NOT_NAMED 1967-01-04 03:00:00 TS 11.9817 87.1200 main 729 714 P________PO___ IO011967 11.9725 87.1301 -1 11.9725 87.1301 TC 25 12.0000 87.1000 1 5 0
1967001N06083 1967 1 NI BB NOT_NAMED 1967-01-04 06:00:00 TS 12.2133 87.1029 main 714 698 O________OP___ jtwc_io IO011967 12.2000 87.1000 -1 12.2000 87.1000 TC 25 12.2399 87.1086 1 4 352
1967001N06083 1967 1 NI BB NOT_NAMED 1967-01-04 09:00:00 TS 12.4200 87.0659 main 698 675 P________PP___ IO011967 12.4075 87.0650 -1 12.4075 87.0650 TC 25 12.4449 87.0677 1 4 345
1967001N06083 1967 1 NI BB NOT_NAMED 1967-01-04 12:00:00 TS 12.6092 86.9976 main 675 652 O________OP___ jtwc_io IO011967 12.6000 87.0000 -1 12.6000 87.0000 TC 25 12.6275 86.9929 1 4 338
1967001N06083 1967 1 NI BB NOT_NAMED 1967-01-04 15:00:00 TS 12.8000 86.9050 main 652 629 P________PO___ IO011967 12.8000 86.9075 -1 12.8000 86.9075 TC 25 12.8000 86.9000 1 4 334
1967001N06083 1967 1 NI BB NOT_NAMED 1967-01-04 18:00:00 TS 13.0008 86.8021 main 629 607 O________OP___ jtwc_io IO011967 13.0000 86.8000 -1 13.0000 86.8000 TC 25 13.0025 86.8063 1 5 334
1967001N06083 1967 1 NI BB NOT_NAMED 1967-01-04 21:00:00 TS 13.2133 86.7001 main 607 584 P________PP___ IO011967 13.2225 86.7000 -1 13.2225 86.7000 TC 25 13.1950 86.7001 1 4 333
1967001N06083 1967 1 NI BB NOT_NAMED 1967-01-05 00:00:00 TS 13.3883 86.5979 main 584 569 O________OP___ jtwc_io IO011967 13.4000 86.6000 -1 13.4000 86.6000 TC 25 13.3650 86.5938 1 3 324
1967001N06083 1967 1 NI BB NOT_NAMED 1967-01-05 03:00:00 TS 13.4817 86.4950 main 569 560 P________PO___ IO011967 13.4725 86.4925 -1 13.4725 86.4925 TC 25 13.5000 86.5000 1 2 307
1967001N06083 1967 1 NI BB NOT_NAMED 1967-01-05 06:00:00 TS 13.5286 86.4132 main 560 553 O________OP___ jtwc_io IO011967 13.5000 86.4000 -1 13.5000 86.4000 TC 25 13.5859 86.4396 1 2 307
1967001N06083 1967 1 NI BB NOT_NAMED 1967-01-05 09:00:00 TS 13.5791 86.3591 main 553 545 P________PP___ IO011967 13.5500 86.3425 -1 13.5500 86.3425 TC 25 13.6375 86.3924 1 1 314
1967001N06083 1967 1 NI BB NOT_NAMED 1967-01-05 12:00:00 TS 13.6234 86.3163 main 545 538 O________OP___ jtwc_io IO011967 13.6000 86.3000 -1 13.6000 86.3000 TC 25 13.6703 86.3490 1 1 314
1967001N06083 1967 1 NI BB NOT_NAMED 1967-01-05 15:00:00 TS 13.6667 86.2667 main 538 529 P________PO___ IO011967 13.6500 86.2500 -1 13.6500 86.2500 TC 25 13.7000 86.3000 1 1 316
1967001N06083 1967 1 NI BB NOT_NAMED 1967-01-05 18:00:00 TS 13.7139 86.2242 main 529 522 O________OP___ jtwc_io IO011967 13.7000 86.2000 -1 13.7000 86.2000 TC 25 13.7417 86.2727 1 1 319
1967001N06083 1967 1 NI BB NOT_NAMED 1967-01-05 21:00:00 TS 13.7566 86.1874 main 522 514 P________PP___ IO011967 13.7425 86.1650 -1 13.7425 86.1650 TC 25 13.7847 86.2323 1 1 313
1967001N06083 1967 1 NI BB NOT_NAMED 1967-01-06 00:00:00 TS 13.8118 86.1169 main 514 498 O________OP___ jtwc_io IO011967 13.8000 86.1000 -1 13.8000 86.1000 TC 25 13.8354 86.1508 1 2 309
1967001N06083 1967 1 NI BB NOT_NAMED 1967-01-06 03:00:00 TS 13.8999 86.0067 main 498 475 P________PO___ IO011967 13.8999 86.0100 -1 13.8999 86.0100 TC 25 13.9000 86.0000 1 4 297
1967001N06083 1967 1 NI BB NOT_NAMED 1967-01-06 06:00:00 TS 13.9859 85.7661 main 475 441 O________OP___ jtwc_io IO011967 14.0000 85.8000 -1 14.0000 85.8000 TC 25 13.9577 85.6982 1 7 282
1967001N06083 1967 1 NI BB NOT_NAMED 1967-01-06 09:00:00 TS 14.0346 85.3400 main 433 395 P________PP___ IO011967 14.0353 85.3425 -1 14.0353 85.3425 TC 25 14.0333 85.3352 1 8 279
1967001N06083 1967 1 NI BB NOT_NAMED 1967-01-06 12:00:00 TS 14.1140 84.9265 main 395 363 O________OP___ jtwc_io IO011967 14.1000 84.9000 -1 14.1000 84.9000 TC 25 14.1421 84.9795 1 6 292
1967001N06083 1967 1 NI BB NOT_NAMED 1967-01-06 15:00:00 TS 14.2749 84.7266 main 363 348 P________PO___ IO011967 14.2624 84.7400 -1 14.2624 84.7400 TC 25 14.3000 84.7000 1 5 327
1967001N06083 1967 1 NI BB NOT_NAMED 1967-01-06 18:00:00 TS 14.5054 84.6615 main 348 318 O________OP___ jtwc_io IO011967 14.5000 84.7000 -1 14.5000 84.7000 TC 25 14.5163 84.5845 1 5 347
1967001N06083 1967 1 NI BB NOT_NAMED 1967-01-06 21:00:00 TS 14.7841 84.6074 main 318 297 P________PP___ IO011967 14.7850 84.6350 -1 14.7850 84.6350 TC 25 14.7822 84.5522 1 6 354
1967001N06083 1967 1 NI BB NOT_NAMED 1967-01-07 00:00:00 TS 15.0940 84.5896 main 297 280 O________OP___ jtwc_io IO011967 15.1000 84.6000 -1 15.1000 84.6000 TC 25 15.0820 84.5689 1 6 0
1967001N06083 1967 1 NI BB NOT_NAMED 1967-01-07 03:00:00 TS 15.3950 84.5950 main 280 259 P________PO___ IO011967 15.3925 84.5925 -1 15.3925 84.5925 TC 25 15.4000 84.6000 1 6 2
1967001N06083 1967 1 NI BB NOT_NAMED 1967-01-07 06:00:00 TS 15.7092 84.6071 main 259 232 O________OP___ jtwc_io IO011967 15.7000 84.6000 -1 15.7000 84.6000 TC 25 15.7229 84.6177 1 7 0
1967001N06083 1967 1 NI BB NOT_NAMED 1967-01-07 09:00:00 TS 16.0433 84.6101 main 232 200 P________PP___ IO011967 16.0400 84.6025 -1 16.0400 84.6025 TC 25 16.0476 84.6202 1 7 0
1967001N06083 1967 1 NI BB NOT_NAMED 1967-01-07 12:00:00 TS 16.3867 84.6063 main 200 177 O________OP___ jtwc_io IO011967 16.4000 84.6000 -1 16.4000 84.6000 TC 25 16.3735 84.6127 1 7 358
1967001N06083 1967 1 NI BB NOT_NAMED 1967-01-07 15:00:00 NR 16.7000 84.6000 main 177 __________O___ IO011967 -1 TC 16.7000 84.6000 1 6 356

About IBTrACS Database

This database is a web-friendly format of International Best Track Archive for Climate Stewardship (IBTrACS), a global best track data archive curated by NOAA dating back to 1842.

Updated: 2021-10-21